Glasgow, MT

12:29 PM MDT on May 25, 2017 (GMT -0600)
Wokal-Glasgow International | | Change Station
Active Advisory: Lake Wind Advisory

Elev 2293 ft 48.21 °N, 106.61 °W | Updated 36 minutes ago

Mostly Cloudy
Mostly Cloudy
58 °F
Feels Like 58 °F
N
28
Wind Variable Wind from NW
Gusts 43 mph

Today
High -- | Low -- °F
--% Chance of Precip.
Yesterday
High -- | Low -- °F
Precip. -- in
Pressure 29.41 in
Visibility 10.0 miles
Clouds Scattered Clouds 3800 ft
Mostly Cloudy 4900 ft
Dew Point 39 °F
Humidity 49%
Rainfall 0.00 in
Snow Depth Not available.
5:15 AM 8:52 PM
Waning Crescent, 0% visible
METAR KGGW 251753Z AUTO 31024G37KT 10SM SCT038 BKN049 14/04 A2940 RMK AO2 PK WND 30037/1746 SLP959 60000 T01440039 10156 20100 53021
Pressure 29.41 in
Visibility 10.0 miles
Clouds Scattered Clouds 3800 ft
Mostly Cloudy 4900 ft
Dew Point 39 °F
Humidity 49%
Rainfall 0.00 in
Snow Depth Not available.
5:15 AM 8:52 PM
Waning Crescent, 0% visible
METAR KGGW 251753Z AUTO 31024G37KT 10SM SCT038 BKN049 14/04 A2940 RMK AO2 PK WND 30037/1746 SLP959 60000 T01440039 10156 20100 53021

Get Your Daily Forecast Email!

Thanks for signing up!

Be on the lookout for a verification email in your inbox.

You'll start receiving severe weather alerts in your inbox..

×

10-Day Weather Forecast

Almanac

Astronomy

May. 25, 2017 Rise Set
Actual Time
Civil Twilight
Nautical Twilight
Astronomical Twilight
Moon
Length of Visible Light
Length of Day
Tomorrow will be .
, % of the Moon is Illuminated

Today's Extremes

State Highs State Lows

Community

WunderPhotos

Category 6

Welcome to Category 6. This is the collective home for Weather Underground's featured writeups by Dr. Jeff Masters (right), Bob Henson (left), Chris Burt, and other regular contributors.

Nearby

Air Quality

  Air Quality AQ Index Pollutant
Not available.

Snow Depth

Station Depth Elevation

Earthquake Activity

City Distance Mag. Time & Date
Minimum magnitude displayed is 2.5.

Coastal Water Temperatures

Place Temperature

Stations

Nearby Weather Stations

Station Location Temp. Windchill Dew Point Humidity Wind Precip. Elev Updated Type
                   

Watches & Warnings

Lake Wind Advisory
Issued: 3:13 AM MDT May. 25, 2017 – National Weather Service

... Lake Wind Advisory remains in effect until 9 PM MDT this
evening for Fort Peck Lake...

* winds... west 20 to 30 mph with gusts up to 40 mph.

* Timing... now through 9 PM this evening.

* Impacts... precautionary/preparedness actions... these winds will
make open waters of the lake rough and hazardous, and may result
in high waves which may tip or swamp smaller craft.

Boaters should use extreme caution if venturing onto Fort Peck
Lake. For your personal safety, avoid the open waters. Stay close
to shore or around protected areas.